Time;durP1;ratioP1;P1;durP2;ratioP2;P2;SDS_P1;SDS_P2;PMS_P1;PMS_P2;Temp;Humidity;BMP_temperature;BMP_pressure;BME280_temperature;BME280_humidity;BME280_pressure;Samples;Min_cycle;Max_cycle;Signal;HPM_P1;HPM_P2
2021/03/12 00:02:09;;;;;;;1.98;1.08;;;23.10;29.40;;;;;;5016001;28;20116;-53
2021/03/12 00:04:35;;;;;;;2.45;1.15;;;23.10;29.40;;;;;;5027159;28;20029;-48
2021/03/12 00:07:02;;;;;;;2.45;1.27;;;23.10;29.40;;;;;;5015997;28;20077;-55
2021/03/12 00:09:28;;;;;;;2.72;1.17;;;23.00;29.30;;;;;;5016034;28;20069;-52
2021/03/12 00:11:54;;;;;;;2.60;1.23;;;23.10;29.40;;;;;;5015944;28;20037;-52
2021/03/12 00:14:19;;;;;;;3.80;1.40;;;23.10;29.40;;;;;;5018181;28;20039;-56
2021/03/12 00:16:45;;;;;;;1.83;1.05;;;23.10;29.40;;;;;;5017770;28;20042;-52
2021/03/12 00:19:12;;;;;;;2.13;1.05;;;23.00;29.30;;;;;;5031849;28;20026;-50
2021/03/12 00:21:38;;;;;;;2.80;1.17;;;23.00;29.30;;;;;;5019646;28;20037;-53
2021/03/12 00:24:05;;;;;;;3.03;1.20;;;23.00;29.30;;;;;;5025655;28;20116;-51
2021/03/12 00:26:31;;;;;;;2.03;1.20;;;23.00;29.30;;;;;;5035363;28;20413;-51
2021/03/12 00:28:57;;;;;;;2.25;0.93;;;23.00;29.50;;;;;;5023463;28;20060;-52
2021/03/12 00:31:23;;;;;;;2.17;1.00;;;23.00;29.30;;;;;;5033659;28;20033;-52
2021/03/12 00:33:49;;;;;;;2.33;1.25;;;23.00;29.30;;;;;;5023009;28;20037;-52
2021/03/12 00:36:15;;;;;;;2.38;1.00;;;23.00;29.30;;;;;;5024841;28;20030;-52
2021/03/12 00:38:40;;;;;;;3.58;1.20;;;23.00;29.30;;;;;;5023911;28;20050;-53
2021/03/12 00:41:07;;;;;;;2.65;1.15;;;23.00;29.30;;;;;;5013971;28;20450;-53
2021/03/12 00:43:42;;;;;;;1.20;0.65;;;23.00;29.30;;;;;;5018800;28;20025;-54
2021/03/12 00:46:17;;;;;;;2.28;0.95;;;23.00;29.30;;;;;;5033831;28;20029;-56
2021/03/12 00:48:44;;;;;;;3.13;1.10;;;23.00;29.30;;;;;;5019387;28;20025;-48
2021/03/12 00:51:10;;;;;;;2.35;1.00;;;22.90;29.20;;;;;;5032457;28;20037;-48
2021/03/12 00:54:02;;;;;;;2.80;1.10;;;22.90;29.20;;;;;;5030026;28;20053;-54
2021/03/12 00:56:28;;;;;;;2.22;0.77;;;22.90;29.20;;;;;;5031418;28;20033;-53
2021/03/12 00:58:55;;;;;;;2.65;0.88;;;23.00;29.20;;;;;;5029175;28;20335;-51
2021/03/12 01:01:25;;;;;;;1.42;0.65;;;22.90;29.20;;;;;;5014851;28;20334;-55
2021/03/12 01:03:51;;;;;;;2.90;1.00;;;22.90;29.20;;;;;;5029442;28;20064;-52
2021/03/12 01:06:17;;;;;;;2.45;0.90;;;22.90;29.20;;;;;;5032227;28;20496;-53
2021/03/12 01:08:52;;;;;;;2.33;1.02;;;22.90;29.20;;;;;;5016204;28;20054;-51
2021/03/12 01:11:22;;;;;;;1.77;0.60;;;22.90;29.20;;;;;;5014806;28;20438;-53
2021/03/12 01:13:48;;;;;;;1.42;0.60;;;22.90;29.20;;;;;;5014490;28;20136;-55
2021/03/12 01:16:15;;;;;;;2.30;1.10;;;22.90;29.20;;;;;;5020603;28;20348;-52
2021/03/12 01:18:41;;;;;;;1.52;0.77;;;22.90;29.20;;;;;;5030386;28;20034;-55
2021/03/12 01:21:14;;;;;;;1.88;0.82;;;22.90;29.20;;;;;;5031492;28;20029;-48
2021/03/12 01:23:39;;;;;;;2.55;0.82;;;22.90;29.20;;;;;;5032079;28;20498;-54
2021/03/12 01:26:05;;;;;;;2.05;0.88;;;22.80;29.10;;;;;;5025094;28;20042;-56
2021/03/12 01:28:40;;;;;;;2.10;0.90;;;22.90;29.20;;;;;;5025376;28;20033;-53
2021/03/12 01:31:06;;;;;;;2.22;0.85;;;22.90;29.20;;;;;;5030122;28;20324;-57
2021/03/12 01:33:40;;;;;;;1.52;0.70;;;22.80;29.10;;;;;;5027820;28;20056;-57
2021/03/12 01:36:06;;;;;;;2.03;0.85;;;22.80;29.10;;;;;;5026997;28;20045;-53
2021/03/12 01:38:46;;;;;;;1.00;0.60;;;22.80;29.10;;;;;;5014322;28;20038;-51
2021/03/12 01:41:12;;;;;;;1.92;0.82;;;22.80;29.10;;;;;;5025309;28;20092;-51
2021/03/12 01:43:42;;;;;;;1.25;0.82;;;22.80;29.10;;;;;;5027390;28;20117;-54
2021/03/12 01:46:08;;;;;;;1.08;0.63;;;22.80;29.10;;;;;;5035109;28;20048;-49
2021/03/12 01:48:34;;;;;;;1.60;0.65;;;22.80;29.10;;;;;;5020392;28;20025;-52
2021/03/12 01:51:04;;;;;;;2.17;0.90;;;22.80;29.10;;;;;;5030119;28;20476;-54
2021/03/12 01:53:35;;;;;;;2.15;0.95;;;22.80;29.10;;;;;;5017015;28;20038;-54
2021/03/12 01:56:03;;;;;;;2.45;0.70;;;22.80;29.10;;;;;;5036274;28;20107;-54
2021/03/12 01:58:38;;;;;;;1.40;0.60;;;22.80;29.10;;;;;;5024022;28;20049;-55
2021/03/12 02:01:07;;;;;;;1.10;0.60;;;22.80;29.10;;;;;;5030916;28;20048;-50
2021/03/12 02:03:41;;;;;;;1.42;0.70;;;22.80;29.10;;;;;;5020756;28;20040;-55
2021/03/12 02:06:36;;;;;;;2.80;0.82;;;22.80;29.10;;;;;;5033254;28;20369;-55
2021/03/12 02:09:03;;;;;;;2.13;0.68;;;22.80;29.10;;;;;;5017050;28;20026;-54
2021/03/12 02:11:36;;;;;;;2.05;0.80;;;22.80;29.10;;;;;;5036633;28;20057;-50
2021/03/12 02:14:33;;;;;;;2.28;0.77;;;22.70;29.00;;;;;;5032362;28;20361;-55
2021/03/12 02:17:08;;;;;;;1.88;0.73;;;22.70;29.00;;;;;;5035904;28;20030;-50
2021/03/12 02:19:53;;;;;;;1.77;0.52;;;22.70;29.10;;;;;;5028379;28;20025;-53
2021/03/12 02:22:21;;;;;;;2.92;1.00;;;22.70;29.00;;;;;;5033669;28;20033;-55
2021/03/12 02:24:59;;;;;;;1.52;0.65;;;22.70;29.10;;;;;;5023851;28;20476;-52
2021/03/12 02:27:46;;;;;;;2.38;0.80;;;22.70;29.10;;;;;;5031113;28;20046;-56
2021/03/12 02:30:14;;;;;;;1.40;0.70;;;22.70;29.10;;;;;;5033888;28;20112;-50
2021/03/12 02:32:47;;;;;;;2.15;0.95;;;22.70;29.10;;;;;;5031263;28;20053;-52
2021/03/12 02:35:22;;;;;;;2.13;0.63;;;22.60;29.10;;;;;;5020541;28;20025;-55
2021/03/12 02:37:56;;;;;;;1.88;0.80;;;22.60;29.10;;;;;;5033753;28;20030;-53
2021/03/12 02:40:25;;;;;;;2.05;0.68;;;22.60;29.10;;;;;;5036013;28;20042;-52
2021/03/12 02:42:58;;;;;;;1.52;0.70;;;22.60;29.10;;;;;;5026549;28;20037;-55
2021/03/12 02:45:25;;;;;;;1.90;0.75;;;22.60;29.10;;;;;;5036036;28;20297;-52
2021/03/12 02:48:02;;;;;;;2.60;0.88;;;22.60;29.10;;;;;;5019961;28;20025;-50
2021/03/12 02:50:32;;;;;;;2.08;0.73;;;22.60;29.60;;;;;;5023474;28;20037;-54
2021/03/12 02:53:03;;;;;;;2.08;0.82;;;22.60;29.10;;;;;;5024160;28;20048;-50
2021/03/12 02:55:32;;;;;;;2.15;0.70;;;22.60;29.10;;;;;;5033656;28;20049;-52
2021/03/12 02:58:01;;;;;;;1.38;0.70;;;22.60;29.10;;;;;;5030500;28;20041;-56
2021/03/12 03:00:29;;;;;;;2.28;0.70;;;22.60;29.10;;;;;;5020389;28;20080;-55
2021/03/12 03:03:17;;;;;;;1.95;0.70;;;22.60;29.10;;;;;;5014707;28;20041;-54
2021/03/12 03:06:07;;;;;;;2.17;0.88;;;22.60;29.00;;;;;;5025270;28;20049;-53
2021/03/12 03:08:33;;;;;;;1.40;0.60;;;22.60;29.10;;;;;;5032641;28;20029;-52
2021/03/12 03:11:07;;;;;;;1.38;0.77;;;22.60;29.00;;;;;;5021811;28;20094;-55
2021/03/12 03:13:36;;;;;;;1.67;0.50;;;22.60;29.00;;;;;;5031196;28;20045;-52
2021/03/12 03:16:05;;;;;;;2.88;0.80;;;22.60;29.00;;;;;;5023826;28;20456;-53
2021/03/12 03:18:36;;;;;;;2.10;0.77;;;22.60;29.00;;;;;;5015359;28;20057;-51
2021/03/12 03:21:02;;;;;;;2.30;0.52;;;22.60;29.00;;;;;;5026552;28;20041;-53
2021/03/12 03:23:28;;;;;;;2.55;0.63;;;22.50;28.90;;;;;;5023944;28;20064;-50
2021/03/12 03:25:55;;;;;;;1.88;0.77;;;22.50;29.40;;;;;;5025003;28;20445;-52
2021/03/12 03:28:28;;;;;;;1.33;0.70;;;22.50;29.00;;;;;;5025357;28;20044;-51
2021/03/12 03:30:54;;;;;;;2.35;1.10;;;22.50;29.00;;;;;;5020008;28;20094;-51
2021/03/12 03:33:20;;;;;;;1.25;0.60;;;22.50;29.00;;;;;;5015039;28;20038;-55
2021/03/12 03:35:45;;;;;;;1.50;0.57;;;22.50;29.00;;;;;;5030872;28;20445;-52
2021/03/12 03:38:11;;;;;;;1.45;0.55;;;22.50;29.00;;;;;;5036121;28;20048;-51
2021/03/12 03:40:37;;;;;;;2.17;0.70;;;22.50;28.90;;;;;;5019476;28;20188;-56
2021/03/12 03:43:06;;;;;;;1.48;0.70;;;22.50;29.00;;;;;;5014945;28;20033;-51
2021/03/12 03:45:34;;;;;;;1.38;0.60;;;22.50;29.00;;;;;;5014774;28;20283;-51
2021/03/12 03:48:13;;;;;;;1.80;0.80;;;22.50;28.90;;;;;;5012481;28;20361;-54
2021/03/12 03:50:40;;;;;;;2.08;0.70;;;22.50;28.90;;;;;;5027154;28;20021;-52
2021/03/12 03:53:08;;;;;;;2.10;0.70;;;22.50;28.90;;;;;;5029115;28;20029;-51
2021/03/12 03:55:34;;;;;;;2.92;0.60;;;22.50;28.90;;;;;;5014903;28;20030;-54
2021/03/12 03:58:03;;;;;;;2.47;0.50;;;22.50;28.90;;;;;;5017413;28;20391;-48
2021/03/12 04:00:34;;;;;;;2.60;0.75;;;22.50;28.90;;;;;;5017295;28;20030;-52
2021/03/12 04:03:05;;;;;;;1.70;0.60;;;22.40;28.90;;;;;;5021556;28;20026;-51
2021/03/12 04:05:36;;;;;;;1.52;0.50;;;22.50;28.90;;;;;;5015412;28;20053;-54
2021/03/12 04:08:03;;;;;;;2.85;0.93;;;22.40;28.90;;;;;;5021902;28;20087;-50
2021/03/12 04:10:31;;;;;;;1.63;0.65;;;22.40;28.90;;;;;;5024282;28;20048;-52
2021/03/12 04:12:57;;;;;;;2.13;0.85;;;22.50;29.00;;;;;;5033665;28;20453;-53
2021/03/12 04:15:25;;;;;;;2.17;0.75;;;22.40;28.90;;;;;;5026687;28;20021;-51
2021/03/12 04:17:52;;;;;;;1.25;0.65;;;22.40;28.90;;;;;;5019041;28;20026;-51
2021/03/12 04:20:20;;;;;;;1.98;0.70;;;22.40;28.90;;;;;;5021694;28;20025;-52
2021/03/12 04:22:49;;;;;;;1.38;0.52;;;22.40;28.90;;;;;;5022261;28;20095;-50
2021/03/12 04:25:16;;;;;;;1.48;0.70;;;22.40;28.90;;;;;;5030762;28;20388;-51
2021/03/12 04:27:43;;;;;;;0.98;0.50;;;22.40;28.90;;;;;;5030270;28;20036;-53
2021/03/12 04:30:10;;;;;;;1.70;0.60;;;22.40;28.90;;;;;;5033959;28;20034;-52
2021/03/12 04:32:38;;;;;;;2.78;0.68;;;22.40;28.90;;;;;;5030603;28;20087;-51
2021/03/12 04:35:06;;;;;;;1.50;0.80;;;22.40;28.90;;;;;;5034082;28;20029;-50
2021/03/12 04:37:34;;;;;;;2.78;0.63;;;22.40;28.90;;;;;;5026191;28;20018;-52
2021/03/12 04:40:00;;;;;;;1.75;0.90;;;22.40;28.90;;;;;;5015352;28;20034;-49
2021/03/12 04:42:28;;;;;;;2.38;0.68;;;22.40;28.90;;;;;;5004844;28;20057;-54
2021/03/12 04:44:55;;;;;;;1.80;0.65;;;22.40;28.90;;;;;;5019167;28;20440;-55
2021/03/12 04:47:22;;;;;;;2.13;0.60;;;22.30;28.90;;;;;;5025510;28;20017;-51
2021/03/12 04:49:52;;;;;;;2.38;0.80;;;22.40;29.40;;;;;;5014959;28;20330;-52
2021/03/12 04:52:19;;;;;;;2.28;0.70;;;22.40;28.90;;;;;;5032524;28;20326;-53
2021/03/12 04:54:46;;;;;;;1.38;0.50;;;22.30;28.90;;;;;;5024537;28;20029;-51
2021/03/12 04:57:17;;;;;;;1.60;0.52;;;22.30;28.90;;;;;;5026621;28;20040;-53
2021/03/12 04:59:44;;;;;;;1.65;0.47;;;22.30;28.90;;;;;;5019766;28;20061;-53
2021/03/12 05:02:12;;;;;;;2.20;0.80;;;22.30;28.90;;;;;;5028113;28;20043;-49
2021/03/12 05:04:41;;;;;;;2.05;0.70;;;22.30;28.90;;;;;;5013663;28;20361;-57
2021/03/12 05:07:08;;;;;;;1.50;0.75;;;22.30;28.90;;;;;;5016303;28;20364;-53
2021/03/12 05:09:53;;;;;;;1.60;0.80;;;22.30;28.90;;;;;;5015243;28;20100;-54
2021/03/12 05:12:21;;;;;;;1.25;0.60;;;22.30;28.90;;;;;;5015462;28;20412;-54
2021/03/12 05:14:47;;;;;;;2.08;0.70;;;22.30;28.90;;;;;;5018784;28;20091;-49
2021/03/12 05:17:13;;;;;;;2.55;1.10;;;22.30;28.90;;;;;;5030318;28;20428;-51
2021/03/12 05:19:40;;;;;;;2.80;0.80;;;22.30;28.90;;;;;;5013607;28;20022;-49
2021/03/12 05:22:07;;;;;;;1.77;0.70;;;22.20;28.90;;;;;;5027159;28;20129;-55
2021/03/12 05:24:34;;;;;;;1.95;0.70;;;22.20;28.90;;;;;;5015210;28;20034;-52
2021/03/12 05:27:03;;;;;;;1.50;0.73;;;22.30;28.90;;;;;;5028652;28;20080;-52
2021/03/12 05:29:37;;;;;;;1.45;0.60;;;22.30;28.90;;;;;;5019133;28;20026;-47
2021/03/12 05:32:04;;;;;;;1.58;0.73;;;22.20;28.90;;;;;;5013961;28;20083;-52
2021/03/12 05:34:32;;;;;;;3.78;0.95;;;22.20;28.90;;;;;;5013418;28;20030;-53
2021/03/12 05:36:58;;;;;;;1.20;0.50;;;22.20;28.90;;;;;;5018978;28;20021;-51
2021/03/12 05:39:24;;;;;;;2.10;0.65;;;22.20;28.90;;;;;;5032486;28;20361;-54
2021/03/12 05:41:53;;;;;;;1.80;0.80;;;22.20;28.90;;;;;;5029016;28;20022;-54
2021/03/12 05:44:23;;;;;;;1.85;0.73;;;22.20;28.90;;;;;;5022858;28;20120;-52
2021/03/12 05:46:53;;;;;;;1.73;0.57;;;22.20;28.90;;;;;;5029225;28;20026;-52
2021/03/12 05:49:20;;;;;;;1.45;0.68;;;22.20;28.90;;;;;;5014491;28;20037;-53
2021/03/12 05:51:46;;;;;;;2.97;0.70;;;22.20;28.90;;;;;;5014934;28;20173;-52
2021/03/12 05:54:12;;;;;;;2.05;0.63;;;22.20;28.90;;;;;;5022166;28;20042;-53
2021/03/12 05:56:41;;;;;;;1.27;0.40;;;22.20;28.80;;;;;;5014246;28;20018;-50
2021/03/12 05:59:08;;;;;;;2.45;0.70;;;22.10;28.80;;;;;;5013266;28;20133;-54
2021/03/12 06:01:35;;;;;;;2.65;0.68;;;22.20;28.90;;;;;;5027752;28;20034;-51
2021/03/12 06:04:00;;;;;;;1.55;0.63;;;22.10;28.80;;;;;;5020686;28;20407;-53
2021/03/12 06:06:29;;;;;;;1.20;0.50;;;22.20;28.80;;;;;;5014544;28;20048;-49
2021/03/12 06:08:55;;;;;;;0.63;0.60;;;22.20;28.80;;;;;;5015648;28;20030;-51
2021/03/12 06:11:21;;;;;;;1.45;0.60;;;22.10;28.80;;;;;;5014316;28;20030;-52
2021/03/12 06:13:52;;;;;;;2.25;0.55;;;22.10;28.80;;;;;;5015237;28;20042;-49
2021/03/12 06:16:37;;;;;;;1.52;0.63;;;22.10;28.80;;;;;;5015447;28;20409;-48
2021/03/12 06:19:15;;;;;;;1.20;0.60;;;22.10;28.80;;;;;;5022498;28;20133;-53
2021/03/12 06:21:45;;;;;;;1.15;0.70;;;22.10;28.80;;;;;;5027260;28;20029;-55
2021/03/12 06:24:24;;;;;;;1.55;0.70;;;22.10;28.90;;;;;;5015869;28;20052;-53
2021/03/12 06:27:04;;;;;;;1.20;0.52;;;22.10;28.90;;;;;;5018662;28;20104;-48
2021/03/12 06:29:38;;;;;;;1.27;0.50;;;22.10;28.90;;;;;;5021279;28;20025;-54
2021/03/12 06:32:43;;;;;;;0.77;0.52;;;22.10;28.80;;;;;;5016812;28;20034;-52
2021/03/12 06:35:25;;;;;;;2.17;0.80;;;22.00;28.80;;;;;;5032168;28;20041;-49
2021/03/12 06:38:17;;;;;;;1.42;0.68;;;22.00;28.90;;;;;;5021330;28;20038;-51
2021/03/12 06:41:05;;;;;;;1.92;0.60;;;22.00;28.80;;;;;;5033444;28;20029;-53
2021/03/12 06:43:46;;;;;;;1.85;0.80;;;22.00;28.80;;;;;;5019044;28;20041;-52
2021/03/12 06:46:13;;;;;;;1.58;0.63;;;22.00;28.80;;;;;;5031999;28;20079;-53
2021/03/12 06:49:02;;;;;;;1.63;0.60;;;22.00;28.80;;;;;;5026497;28;20025;-52
2021/03/12 06:51:58;;;;;;;1.70;0.60;;;22.00;28.80;;;;;;5016129;28;20033;-56
2021/03/12 06:54:27;;;;;;;2.35;0.80;;;22.00;28.90;;;;;;5023680;28;20049;-52
2021/03/12 06:56:59;;;;;;;0.82;0.50;;;22.00;28.90;;;;;;5033192;28;20495;-52
2021/03/12 06:59:39;;;;;;;1.95;0.80;;;22.00;28.90;;;;;;5030608;28;20026;-50
2021/03/12 07:02:27;;;;;;;2.03;0.73;;;22.00;28.90;;;;;;5027394;28;20993;-58
2021/03/12 07:04:57;;;;;;;2.95;1.10;;;22.00;28.90;;;;;;5019588;28;20140;-55
2021/03/12 07:07:41;;;;;;;1.98;0.90;;;22.00;28.90;;;;;;5024627;28;20089;-51
2021/03/12 07:10:34;;;;;;;1.58;0.60;;;22.00;28.90;;;;;;5025989;28;20053;-49
2021/03/12 07:13:15;;;;;;;1.77;0.55;;;22.00;28.90;;;;;;5026383;28;20044;-49
2021/03/12 07:15:45;;;;;;;1.42;0.75;;;22.00;28.90;;;;;;5011833;28;20033;-53
2021/03/12 07:18:22;;;;;;;2.03;0.90;;;22.00;28.90;;;;;;5020370;28;20046;-51
2021/03/12 07:20:52;;;;;;;3.28;1.00;;;22.00;28.90;;;;;;5026011;28;20044;-51
2021/03/12 07:23:20;;;;;;;2.08;0.90;;;22.00;29.00;;;;;;5023483;28;20060;-54
2021/03/12 07:25:48;;;;;;;2.45;0.88;;;22.00;29.20;;;;;;5027571;28;20029;-50
2021/03/12 07:28:16;;;;;;;2.03;0.90;;;22.00;29.30;;;;;;5023053;28;20037;-49
2021/03/12 07:31:04;;;;;;;1.73;0.82;;;22.00;29.40;;;;;;5024733;28;20367;-53
2021/03/12 07:33:41;;;;;;;2.50;0.95;;;22.10;29.40;;;;;;5030026;28;20041;-56
2021/03/12 07:36:09;;;;;;;2.33;0.80;;;22.20;29.40;;;;;;5026766;28;20029;-55
2021/03/12 07:38:45;;;;;;;3.60;0.70;;;22.30;29.30;;;;;;5021244;28;20109;-54
2021/03/12 07:41:17;;;;;;;1.92;0.85;;;22.40;29.20;;;;;;5018189;28;20029;-55
2021/03/12 07:43:54;;;;;;;2.53;0.88;;;22.50;29.20;;;;;;5017676;28;20049;-56
2021/03/12 07:46:30;;;;;;;2.22;0.88;;;22.60;29.10;;;;;;5024939;28;20022;-56
2021/03/12 07:49:29;;;;;;;3.35;1.08;;;22.70;29.10;;;;;;5026542;28;20038;-59
2021/03/12 07:52:04;;;;;;;3.67;0.82;;;22.80;29.10;;;;;;5021200;28;20497;-56
2021/03/12 07:54:43;;;;;;;4.05;1.20;;;22.90;29.00;;;;;;5029112;28;20118;-54
2021/03/12 07:57:41;;;;;;;1.55;0.80;;;23.00;29.00;;;;;;5018144;28;20383;-54
2021/03/12 08:00:56;;;;;;;3.10;1.20;;;23.10;28.90;;;;;;5028445;28;20468;-55
2021/03/12 08:03:36;;;;;;;2.60;1.02;;;23.20;28.90;;;;;;5031162;28;20211;-58
2021/03/12 08:06:18;;;;;;;2.40;0.80;;;23.20;29.40;;;;;;5014958;28;20088;-55
2021/03/12 08:09:23;;;;;;;2.42;1.00;;;23.30;28.80;;;;;;5022298;28;20056;-54
2021/03/12 08:11:59;;;;;;;2.47;1.00;;;23.40;28.80;;;;;;5045308;28;20025;-56
2021/03/12 08:15:10;;;;;;;2.50;1.00;;;23.40;28.70;;;;;;5014941;28;20037;-56
2021/03/12 08:17:36;;;;;;;1.80;0.77;;;23.60;28.70;;;;;;5019281;28;20033;-54
2021/03/12 08:20:36;;;;;;;2.60;0.80;;;23.60;28.60;;;;;;5021280;28;20350;-53
2021/03/12 08:23:33;;;;;;;3.55;1.13;;;23.70;28.60;;;;;;5026049;28;20747;-55
2021/03/12 08:26:03;;;;;;;2.70;0.80;;;23.80;28.50;;;;;;5021766;28;20022;-56
2021/03/12 08:28:48;;;;;;;3.20;1.25;;;23.90;28.50;;;;;;5025007;28;20126;-55
2021/03/12 08:31:40;;;;;;;2.03;0.93;;;24.00;28.40;;;;;;5020521;28;20026;-52
2021/03/12 08:34:43;;;;;;;1.73;0.82;;;24.00;28.30;;;;;;5030920;28;20037;-56
2021/03/12 08:37:28;;;;;;;2.35;1.00;;;24.10;28.30;;;;;;5026444;28;20108;-52
2021/03/12 08:40:15;;;;;;;3.15;0.95;;;24.10;28.20;;;;;;5026467;28;20359;-54
2021/03/12 08:43:08;;;;;;;3.58;1.20;;;24.20;28.20;;;;;;5028929;28;20045;-51
2021/03/12 08:45:59;;;;;;;3.30;1.25;;;24.30;28.20;;;;;;5014631;28;20112;-54
2021/03/12 08:48:31;;;;;;;;;;;24.30;28.20;;;;;;5020176;28;20475;-58
2021/03/12 08:51:05;;;;;;;1.95;0.95;;;24.40;28.20;;;;;;5024808;28;20381;-54
2021/03/12 08:53:39;;;;;;;3.55;0.98;;;24.40;28.10;;;;;;5025520;28;20072;-57
2021/03/12 08:56:08;;;;;;;2.90;0.90;;;24.40;28.10;;;;;;5025796;28;20021;-58
2021/03/12 08:58:45;;;;;;;6.32;1.58;;;24.40;28.00;;;;;;5021515;28;20033;-54
2021/03/12 09:01:26;;;;;;;4.32;0.93;;;24.50;28.00;;;;;;5022099;28;20100;-54
2021/03/12 09:04:01;;;;;;;4.65;1.27;;;24.50;27.90;;;;;;5017286;28;20041;-57
2021/03/12 09:06:52;;;;;;;2.80;0.98;;;24.50;27.90;;;;;;5023296;28;20453;-57
2021/03/12 09:09:27;;;;;;;3.05;1.05;;;24.50;27.80;;;;;;5016092;28;20026;-51
2021/03/12 09:12:06;;;;;;;2.58;1.02;;;24.40;27.80;;;;;;5027461;28;20048;-50
2021/03/12 09:14:47;;;;;;;2.90;1.30;;;24.50;27.80;;;;;;5021920;28;20064;-50
2021/03/12 09:17:12;;;;;;;3.33;1.00;;;24.50;27.80;;;;;;5026281;28;20394;-54
2021/03/12 09:19:43;;;;;;;3.35;1.23;;;24.40;27.70;;;;;;5021302;28;20067;-50
2021/03/12 09:22:22;;;;;;;2.78;0.90;;;24.40;27.70;;;;;;5023066;28;20433;-52
2021/03/12 09:24:55;;;;;;;2.65;0.90;;;24.40;27.70;;;;;;5019457;28;20021;-52
2021/03/12 09:28:10;;;;;;;2.95;1.17;;;24.40;27.70;;;;;;4997602;28;20041;-55
2021/03/12 09:30:46;;;;;;;3.33;1.00;;;24.30;27.70;;;;;;5023210;28;20021;-55
2021/03/12 09:33:36;;;;;;;3.28;1.40;;;24.30;27.80;;;;;;5025317;28;20091;-54
2021/03/12 09:36:58;;;;;;;2.55;1.00;;;24.30;27.80;;;;;;5026505;28;20040;-55
2021/03/12 09:40:03;;;;;;;2.65;0.90;;;24.30;27.80;;;;;;4960506;28;20042;-52
2021/03/12 09:42:51;;;;;;;3.78;1.38;;;24.20;27.80;;;;;;4955206;28;20035;-53
2021/03/12 09:45:29;;;;;;;3.03;1.10;;;24.20;27.80;;;;;;4999017;28;20046;-52
2021/03/12 09:48:06;;;;;;;3.35;1.20;;;24.20;27.80;;;;;;5020215;28;20026;-52
2021/03/12 09:50:36;;;;;;;2.65;0.88;;;24.10;27.70;;;;;;5019505;28;20099;-57
2021/03/12 09:53:08;;;;;;;2.60;0.93;;;24.10;27.80;;;;;;5018931;28;20071;-56
2021/03/12 09:55:58;;;;;;;3.13;1.33;;;24.10;27.70;;;;;;5018139;28;20049;-58
2021/03/12 09:58:31;;;;;;;3.55;1.20;;;24.10;27.70;;;;;;5025758;28;20448;-48
2021/03/12 10:01:20;;;;;;;4.47;1.55;;;24.10;27.80;;;;;;5019417;28;20030;-53
2021/03/12 10:03:53;;;;;;;3.38;1.17;;;24.00;27.80;;;;;;5027735;28;20083;-51
2021/03/12 10:06:32;;;;;;;4.30;1.27;;;24.00;27.90;;;;;;5029470;28;20041;-54
2021/03/12 10:09:09;;;;;;;3.00;1.00;;;24.00;27.90;;;;;;5026386;28;20149;-56
2021/03/12 10:11:52;;;;;;;3.20;1.15;;;24.00;27.90;;;;;;5050209;28;20036;-58
2021/03/12 10:14:39;;;;;;;2.75;1.17;;;24.00;28.00;;;;;;5032572;28;20041;-50
2021/03/12 10:17:25;;;;;;;4.38;1.52;;;24.00;27.90;;;;;;5035047;28;20472;-53
2021/03/12 10:19:55;;;;;;;5.68;1.60;;;23.90;27.90;;;;;;5030758;28;20025;-57
2021/03/12 10:22:37;;;;;;;5.20;1.38;;;23.90;28.00;;;;;;5031527;28;20022;-56
2021/03/12 10:25:23;;;;;;;3.03;1.27;;;23.90;28.00;;;;;;5016786;28;20022;-54
2021/03/12 10:28:08;;;;;;;3.72;1.25;;;23.80;28.10;;;;;;5034468;28;20029;-57
2021/03/12 10:30:38;;;;;;;3.67;1.08;;;23.80;28.20;;;;;;5032982;28;20029;-58
2021/03/12 10:33:09;;;;;;;3.65;1.48;;;23.80;28.30;;;;;;5035362;28;20109;-56
2021/03/12 10:35:47;;;;;;;2.92;1.10;;;23.70;28.40;;;;;;5031235;28;20359;-57
2021/03/12 10:38:23;;;;;;;3.65;0.88;;;23.70;28.50;;;;;;5035902;28;20033;-59
2021/03/12 10:40:55;;;;;;;4.35;1.55;;;23.80;29.10;;;;;;5033190;28;20053;-55
2021/03/12 10:43:25;;;;;;;4.35;1.30;;;23.70;28.70;;;;;;5035775;28;20030;-53
2021/03/12 10:45:55;;;;;;;2.78;1.10;;;23.80;28.80;;;;;;5033106;28;20125;-54
2021/03/12 10:48:27;;;;;;;4.13;1.48;;;23.80;28.90;;;;;;5033189;28;20037;-56
2021/03/12 10:51:03;;;;;;;3.67;1.33;;;23.80;28.90;;;;;;5028249;28;20104;-54
2021/03/12 10:53:29;;;;;;;3.65;1.40;;;23.80;28.90;;;;;;5035155;28;20060;-52
2021/03/12 10:56:04;;;;;;;3.08;1.33;;;23.80;29.00;;;;;;5032677;28;20025;-56
2021/03/12 10:58:35;;;;;;;3.83;1.33;;;23.80;29.00;;;;;;5031288;28;20041;-55
2021/03/12 11:01:07;;;;;;;3.60;0.88;;;23.80;29.10;;;;;;5030683;28;20030;-59
2021/03/12 11:03:34;;;;;;;13.68;1.65;;;23.80;29.00;;;;;;5034935;28;20037;-59
2021/03/12 11:05:59;;;;;;;4.95;2.03;;;23.80;29.00;;;;;;5027947;28;20033;-46
2021/03/12 11:08:27;;;;;;;5.70;2.25;;;23.80;29.10;;;;;;5029230;28;20034;-57
2021/03/12 11:10:54;;;;;;;4.32;2.03;;;23.80;29.20;;;;;;5027578;28;20029;-51
2021/03/12 11:13:20;;;;;;;4.53;2.10;;;23.70;29.30;;;;;;5034311;28;20048;-49
2021/03/12 11:15:46;;;;;;;5.38;2.28;;;23.70;29.30;;;;;;5034238;28;20338;-51
2021/03/12 11:18:12;;;;;;;3.50;1.88;;;23.80;29.40;;;;;;5033206;28;20099;-50
2021/03/12 11:20:38;;;;;;;5.72;1.70;;;23.70;29.40;;;;;;5032920;28;20025;-59
2021/03/12 11:23:04;;;;;;;4.60;1.92;;;23.70;29.40;;;;;;5033539;28;20048;-57
2021/03/12 11:25:30;;;;;;;3.50;1.35;;;23.70;29.40;;;;;;5033746;28;20026;-59
2021/03/12 11:27:56;;;;;;;3.20;1.63;;;23.70;29.40;;;;;;5014002;28;20025;-57
2021/03/12 11:30:22;;;;;;;5.03;1.90;;;23.70;29.30;;;;;;5033894;28;20033;-53
2021/03/12 11:32:48;;;;;;;2.88;1.52;;;23.70;29.20;;;;;;5034182;28;20041;-58
2021/03/12 11:35:15;;;;;;;3.80;1.75;;;23.70;29.20;;;;;;5033855;28;20036;-56
2021/03/12 11:37:41;;;;;;;3.35;1.50;;;23.80;29.20;;;;;;5031812;28;20041;-52
2021/03/12 11:40:09;;;;;;;4.13;1.70;;;23.80;29.20;;;;;;5033887;28;20032;-57
2021/03/12 11:42:36;;;;;;;3.85;1.52;;;23.80;29.20;;;;;;5031514;28;20033;-57
2021/03/12 11:45:03;;;;;;;3.40;1.42;;;23.80;29.20;;;;;;5034222;28;20429;-56
2021/03/12 11:47:29;;;;;;;6.45;1.40;;;23.80;29.10;;;;;;5031935;28;20017;-59
2021/03/12 11:49:55;;;;;;;3.92;1.60;;;23.80;29.10;;;;;;5027513;28;20036;-56
2021/03/12 11:52:25;;;;;;;4.03;1.65;;;23.80;29.10;;;;;;5027858;28;20041;-54
2021/03/12 11:54:55;;;;;;;3.80;1.58;;;23.80;29.10;;;;;;5033906;28;20065;-57
2021/03/12 11:57:22;;;;;;;2.95;1.50;;;23.70;29.00;;;;;;5033416;28;20124;-59
2021/03/12 11:59:48;;;;;;;3.53;1.70;;;23.70;29.00;;;;;;5033842;28;20025;-57
2021/03/12 12:02:15;;;;;;;4.30;1.58;;;23.80;29.00;;;;;;5033088;28;20025;-57
2021/03/12 12:04:48;;;;;;;3.60;1.25;;;23.70;28.90;;;;;;5026827;28;20033;-57
2021/03/12 12:07:15;;;;;;;2.88;1.10;;;23.70;28.90;;;;;;5031855;28;20107;-59
2021/03/12 12:09:41;;;;;;;3.25;1.30;;;23.60;28.90;;;;;;5031388;28;20026;-61
2021/03/12 12:12:09;;;;;;;4.05;1.20;;;23.60;29.00;;;;;;5031212;28;20021;-58
2021/03/12 12:14:35;;;;;;;2.67;1.17;;;23.60;29.10;;;;;;5033481;28;20033;-56
2021/03/12 12:17:01;;;;;;;3.10;1.20;;;23.60;29.10;;;;;;5034564;28;20030;-60
2021/03/12 12:19:27;;;;;;;3.40;1.67;;;23.50;29.10;;;;;;5028193;28;20086;-55
2021/03/12 12:21:52;;;;;;;4.28;1.30;;;23.50;29.10;;;;;;5030593;28;20104;-56
2021/03/12 12:24:19;;;;;;;3.92;1.23;;;23.50;29.10;;;;;;5030498;28;20040;-59
2021/03/12 12:26:45;;;;;;;3.00;1.55;;;23.50;29.20;;;;;;5029662;28;20152;-58
2021/03/12 12:29:11;;;;;;;3.55;1.90;;;23.50;29.30;;;;;;5035571;28;20136;-56
2021/03/12 12:31:37;;;;;;;4.60;2.13;;;23.60;29.40;;;;;;5035197;28;20440;-60
2021/03/12 12:34:03;;;;;;;6.72;2.80;;;23.50;29.30;;;;;;5031236;28;20069;-54
2021/03/12 12:36:30;;;;;;;6.72;3.40;;;23.50;29.40;;;;;;5026182;28;20339;-60
2021/03/12 12:38:57;;;;;;;8.93;4.55;;;23.50;29.40;;;;;;5015371;28;20360;-57
2021/03/12 12:41:23;;;;;;;9.60;5.07;;;23.50;29.50;;;;;;5015405;28;20034;-56
2021/03/12 12:43:50;;;;;;;8.45;5.30;;;23.50;29.60;;;;;;5015547;28;20032;-59
2021/03/12 12:46:17;;;;;;;7.63;5.55;;;23.40;29.60;;;;;;5015436;28;20112;-58
2021/03/12 12:48:44;;;;;;;10.07;6.50;;;23.40;29.60;;;;;;5015583;28;20034;-57
2021/03/12 12:51:10;;;;;;;9.93;6.40;;;23.40;29.70;;;;;;5015124;28;20038;-58
2021/03/12 12:53:36;;;;;;;11.23;6.70;;;23.40;29.70;;;;;;5019213;28;20037;-58
2021/03/12 12:56:03;;;;;;;10.32;7.28;;;23.40;29.70;;;;;;5028822;28;20137;-58
2021/03/12 12:58:29;;;;;;;10.07;7.35;;;23.40;29.70;;;;;;5024145;28;20044;-58
2021/03/12 13:00:55;;;;;;;12.38;7.93;;;23.40;29.70;;;;;;5026583;28;20030;-56
2021/03/12 13:03:24;;;;;;;10.57;7.80;;;23.40;29.80;;;;;;5014942;28;20390;-54
2021/03/12 13:05:51;;;;;;;12.50;8.52;;;23.40;29.80;;;;;;5022153;28;20060;-59
2021/03/12 13:08:17;;;;;;;12.55;8.73;;;23.40;29.80;;;;;;5015352;28;20394;-56
2021/03/12 13:10:44;;;;;;;14.10;9.10;;;23.40;29.80;;;;;;5031456;28;20076;-59
2021/03/12 13:13:10;;;;;;;13.48;9.82;;;23.40;29.90;;;;;;5030888;28;20108;-56
2021/03/12 13:15:36;;;;;;;12.25;9.38;;;23.50;29.90;;;;;;5025882;28;20022;-55